Time;durP1;ratioP1;P1;durP2;ratioP2;P2;SDS_P1;SDS_P2;PMS_P1;PMS_P2;Temp;Humidity;BMP_temperature;BMP_pressure;BME280_temperature;BME280_humidity;BME280_pressure;Samples;Min_cycle;Max_cycle;Signal;HPM_P1;HPM_P2
2023/05/24 00:02:06;;;;;;;5.13;4.37;;;13.70;99.90;;;;;;5129736;27;20207;-67
2023/05/24 00:04:32;;;;;;;9.17;4.90;;;13.60;99.90;;;;;;5129633;27;20406;-67
2023/05/24 00:07:02;;;;;;;4.70;4.00;;;13.60;99.90;;;;;;5111272;27;20434;-67
2023/05/24 00:09:28;;;;;;;5.30;4.27;;;13.70;99.90;;;;;;5129845;27;20425;-67
2023/05/24 00:11:54;;;;;;;4.77;4.17;;;13.60;99.90;;;;;;5129490;27;20427;-67
2023/05/24 00:14:20;;;;;;;6.87;4.60;;;13.60;99.90;;;;;;5110799;27;20426;-67
2023/05/24 00:16:45;;;;;;;6.90;4.50;;;13.50;99.90;;;;;;5129557;27;20232;-67
2023/05/24 00:19:17;;;;;;;6.80;4.70;;;13.50;99.90;;;;;;5129484;27;20251;-67
2023/05/24 00:21:45;;;;;;;5.73;4.33;;;13.50;99.90;;;;;;5129434;27;20737;-67
2023/05/24 00:24:11;;;;;;;11.53;4.00;;;13.50;99.90;;;;;;5129287;27;20425;-67
2023/05/24 00:26:37;;;;;;;6.90;4.27;;;13.50;99.90;;;;;;5110561;27;20434;-67
2023/05/24 00:29:02;;;;;;;4.70;3.77;;;13.40;99.90;;;;;;5129347;27;20857;-67
2023/05/24 00:31:28;;;;;;;7.00;4.50;;;13.50;99.90;;;;;;5129054;27;20184;-67
2023/05/24 00:33:54;;;;;;;8.27;4.93;;;13.50;99.90;;;;;;5129547;27;20253;-67
2023/05/24 00:36:20;;;;;;;5.40;4.80;;;13.50;99.90;;;;;;5129583;27;20207;-68
2023/05/24 00:38:46;;;;;;;7.60;4.60;;;13.40;99.90;;;;;;5129155;27;20208;-67
2023/05/24 00:41:11;;;;;;;6.17;4.50;;;13.40;99.90;;;;;;5110540;27;20432;-67
2023/05/24 00:43:37;;;;;;;6.87;5.77;;;13.50;99.90;;;;;;5129387;27;20921;-67
2023/05/24 00:46:21;;;;;;;12.13;6.30;;;13.40;99.90;;;;;;5129148;27;20180;-68
2023/05/24 00:48:48;;;;;;;8.63;5.90;;;13.40;99.90;;;;;;5129199;28;20189;-67
2023/05/24 00:51:14;;;;;;;7.53;5.70;;;13.40;99.90;;;;;;5129181;28;20415;-68
2023/05/24 00:53:43;;;;;;;8.03;5.60;;;13.40;99.90;;;;;;5129021;28;20824;-69
2023/05/24 00:56:10;;;;;;;8.50;5.30;;;13.30;99.90;;;;;;5128956;27;20421;-68
2023/05/24 00:58:35;;;;;;;7.47;4.90;;;13.30;99.90;;;;;;5129221;28;20469;-68
2023/05/24 01:01:02;;;;;;;9.27;5.37;;;13.30;99.90;;;;;;5129354;28;20407;-68
2023/05/24 01:03:28;;;;;;;5.57;4.70;;;13.20;99.90;;;;;;5129320;27;20546;-68
2023/05/24 01:05:57;;;;;;;6.17;4.27;;;13.10;99.90;;;;;;5128832;27;20406;-68
2023/05/24 01:08:44;;;;;;;6.13;4.77;;;13.10;99.90;;;;;;5128849;28;20417;-67
2023/05/24 01:11:50;;;;;;;6.57;4.63;;;13.20;99.90;;;;;;5128949;27;20413;-67
2023/05/24 01:14:25;;;;;;;7.23;5.40;;;13.10;99.90;;;;;;5128969;28;20414;-67
2023/05/24 01:16:56;;;;;;;6.87;5.00;;;13.10;99.90;;;;;;5110355;28;20448;-66
2023/05/24 01:19:37;;;;;;;7.07;4.73;;;13.20;99.90;;;;;;5128817;28;20465;-67
2023/05/24 01:22:11;;;;;;;6.37;4.63;;;13.20;99.90;;;;;;5128922;27;20449;-67
2023/05/24 01:24:52;;;;;;;5.33;4.60;;;13.20;99.90;;;;;;5128938;28;20406;-67
2023/05/24 01:27:20;;;;;;;6.70;5.20;;;13.10;99.90;;;;;;5128790;27;20784;-67
2023/05/24 01:29:52;;;;;;;8.00;5.00;;;13.20;99.90;;;;;;5110136;28;20450;-67
2023/05/24 01:32:18;;;;;;;5.30;4.20;;;13.10;99.90;;;;;;5129040;28;20422;-67
2023/05/24 01:34:44;;;;;;;5.10;4.23;;;13.20;99.90;;;;;;5128836;28;20463;-67
2023/05/24 01:37:09;;;;;;;7.73;4.60;;;13.10;99.90;;;;;;5128650;27;20431;-67
2023/05/24 01:39:35;;;;;;;5.87;4.60;;;13.10;99.90;;;;;;5110028;28;20236;-67
2023/05/24 01:42:13;;;;;;;6.70;4.47;;;13.10;99.90;;;;;;5128637;27;20205;-67
2023/05/24 01:44:53;;;;;;;8.30;4.73;;;13.10;99.90;;;;;;5132331;27;20183;-67
2023/05/24 01:47:35;;;;;;;8.37;5.40;;;13.10;99.90;;;;;;5132551;27;20572;-67
2023/05/24 01:50:19;;;;;;;5.00;4.20;;;13.00;99.90;;;;;;5114205;27;20410;-67
2023/05/24 01:52:45;;;;;;;8.53;4.93;;;13.00;99.90;;;;;;5132665;27;20413;-67
2023/05/24 01:55:15;;;;;;;6.13;5.00;;;12.90;99.90;;;;;;5132617;27;20414;-67
2023/05/24 01:57:44;;;;;;;7.83;5.50;;;12.90;99.90;;;;;;5132484;27;20960;-66
2023/05/24 02:00:13;;;;;;;6.43;5.00;;;12.90;99.90;;;;;;5133097;27;20411;-66
2023/05/24 02:02:38;;;;;;;5.20;3.87;;;12.90;99.90;;;;;;5113938;27;20516;-66
2023/05/24 02:05:04;;;;;;;4.90;4.23;;;13.00;99.90;;;;;;5132906;27;20509;-67
2023/05/24 02:07:30;;;;;;;7.27;5.50;;;13.00;99.90;;;;;;5132984;27;20197;-66
2023/05/24 02:09:56;;;;;;;11.03;4.80;;;13.10;99.90;;;;;;5114461;27;20776;-67
2023/05/24 02:12:21;;;;;;;7.50;4.63;;;13.00;99.90;;;;;;5132868;27;20422;-66
2023/05/24 02:14:49;;;;;;;8.83;5.00;;;13.00;99.90;;;;;;5132697;27;20189;-67
2023/05/24 02:17:16;;;;;;;7.23;5.53;;;13.00;99.90;;;;;;5132576;27;20607;-66
2023/05/24 02:19:42;;;;;;;7.40;4.63;;;12.90;99.90;;;;;;5113838;27;20483;-67
2023/05/24 02:22:08;;;;;;;10.13;4.50;;;12.90;99.90;;;;;;5132328;27;20908;-67
2023/05/24 02:24:35;;;;;;;9.50;4.80;;;12.90;99.90;;;;;;5131987;27;20184;-67
2023/05/24 02:27:01;;;;;;;8.20;4.63;;;12.90;99.90;;;;;;5131962;27;20203;-66
2023/05/24 02:29:27;;;;;;;6.20;4.70;;;12.80;99.90;;;;;;5131908;27;20418;-67
2023/05/24 02:31:55;;;;;;;7.50;4.63;;;12.80;99.90;;;;;;5113542;27;20422;-66
2023/05/24 02:34:23;;;;;;;7.50;4.30;;;12.80;99.90;;;;;;5132234;27;20597;-66
2023/05/24 02:36:50;;;;;;;13.00;5.87;;;12.80;99.90;;;;;;5132550;27;20438;-67
2023/05/24 02:39:16;;;;;;;6.93;4.70;;;12.80;99.90;;;;;;5132587;27;20462;-67
2023/05/24 02:41:42;;;;;;;5.70;3.90;;;12.80;99.90;;;;;;5132178;27;20537;-66
2023/05/24 02:44:07;;;;;;;5.70;3.80;;;12.70;99.90;;;;;;5132070;27;20825;-66
2023/05/24 02:46:33;;;;;;;7.20;4.10;;;12.70;99.90;;;;;;5132127;27;20200;-66
2023/05/24 02:48:58;;;;;;;6.10;4.00;;;12.70;99.90;;;;;;5131794;27;20177;-66
2023/05/24 02:51:24;;;;;;;10.33;4.00;;;12.70;99.90;;;;;;5131842;27;20286;-65
2023/05/24 02:53:50;;;;;;;7.87;4.37;;;12.60;99.90;;;;;;5131985;27;20700;-66
2023/05/24 02:56:16;;;;;;;10.70;4.33;;;12.60;99.90;;;;;;5132026;27;20201;-67
2023/05/24 02:58:45;;;;;;;11.10;4.10;;;12.60;99.90;;;;;;5132056;27;20218;-66
2023/05/24 03:01:14;;;;;;;7.00;4.00;;;12.60;99.90;;;;;;5113357;27;20965;-66
2023/05/24 03:03:40;;;;;;;7.73;4.30;;;12.60;99.90;;;;;;5132095;27;20413;-66
2023/05/24 03:06:06;;;;;;;9.90;4.57;;;12.60;99.90;;;;;;5132197;27;20497;-66
2023/05/24 03:08:33;;;;;;;10.67;4.27;;;12.50;99.90;;;;;;5132097;27;20926;-66
2023/05/24 03:10:59;;;;;;;7.13;4.00;;;12.40;99.90;;;;;;5132056;27;20487;-67
2023/05/24 03:13:24;;;;;;;6.17;3.83;;;12.40;99.90;;;;;;5131666;27;20437;-66
2023/05/24 03:15:50;;;;;;;9.00;4.37;;;12.40;99.90;;;;;;5131396;27;20602;-66
2023/05/24 03:18:15;;;;;;;10.73;4.10;;;12.40;99.90;;;;;;5131345;27;20819;-66
2023/05/24 03:20:41;;;;;;;9.83;4.20;;;12.40;99.90;;;;;;5131265;27;20187;-67
2023/05/24 03:23:08;;;;;;;10.23;4.23;;;12.30;99.90;;;;;;5131158;27;20181;-67
2023/05/24 03:25:34;;;;;;;13.10;4.80;;;12.40;99.90;;;;;;5112491;27;20611;-66
2023/05/24 03:28:01;;;;;;;6.57;4.23;;;12.30;99.90;;;;;;5130808;27;20446;-66
2023/05/24 03:30:27;;;;;;;9.13;4.13;;;12.40;99.90;;;;;;5113482;27;20182;-67
2023/05/24 03:32:52;;;;;;;11.73;3.73;;;12.40;99.90;;;;;;5131467;27;20454;-67
2023/05/24 03:35:18;;;;;;;9.67;4.30;;;12.40;99.90;;;;;;5130535;27;20177;-67
2023/05/24 03:37:43;;;;;;;5.23;3.63;;;12.40;99.90;;;;;;5130626;27;20215;-67
2023/05/24 03:40:09;;;;;;;8.53;4.43;;;12.40;99.90;;;;;;5111958;27;20663;-67
2023/05/24 03:42:38;;;;;;;6.17;3.80;;;12.40;99.90;;;;;;5130331;27;20200;-67
2023/05/24 03:45:04;;;;;;;8.00;4.40;;;12.30;99.90;;;;;;5130281;27;20418;-66
2023/05/24 03:47:30;;;;;;;13.33;4.30;;;12.30;99.90;;;;;;5130174;27;20442;-66
2023/05/24 03:49:56;;;;;;;10.17;4.60;;;12.30;99.90;;;;;;5130502;27;20424;-66
2023/05/24 03:52:22;;;;;;;10.00;4.20;;;12.20;99.90;;;;;;5130224;27;20216;-66
2023/05/24 03:54:48;;;;;;;8.37;4.50;;;12.20;99.90;;;;;;5130235;27;20461;-66
2023/05/24 03:57:14;;;;;;;11.07;4.87;;;12.20;99.90;;;;;;5130169;27;20216;-66
2023/05/24 03:59:40;;;;;;;7.27;4.67;;;12.20;99.90;;;;;;5130114;27;21018;-66
2023/05/24 04:02:05;;;;;;;13.40;4.97;;;12.10;99.90;;;;;;5130193;27;20420;-66
2023/05/24 04:04:31;;;;;;;12.00;4.33;;;12.10;99.90;;;;;;5130323;27;20185;-66
2023/05/24 04:06:57;;;;;;;7.00;4.33;;;12.10;99.90;;;;;;5129333;27;20683;-66
2023/05/24 04:09:23;;;;;;;9.10;4.00;;;12.10;99.90;;;;;;5130017;27;20654;-66
2023/05/24 04:11:49;;;;;;;13.90;4.43;;;12.10;99.90;;;;;;5111350;27;20215;-66
2023/05/24 04:14:15;;;;;;;10.27;3.83;;;12.10;99.90;;;;;;5129853;27;20418;-66
2023/05/24 04:16:43;;;;;;;10.27;4.60;;;12.10;99.90;;;;;;5129653;27;20444;-66
2023/05/24 04:19:10;;;;;;;9.37;4.40;;;12.10;99.90;;;;;;5129818;27;20687;-66
2023/05/24 04:21:36;;;;;;;9.67;4.80;;;12.10;99.90;;;;;;5129840;27;20411;-66
2023/05/24 04:24:03;;;;;;;11.10;4.90;;;12.10;99.90;;;;;;5129997;27;20425;-66
2023/05/24 04:26:30;;;;;;;14.77;5.17;;;12.10;99.90;;;;;;5130410;27;20442;-66
2023/05/24 04:28:56;;;;;;;13.03;4.73;;;12.10;99.90;;;;;;5130470;27;20785;-65
2023/05/24 04:31:21;;;;;;;16.43;5.10;;;12.10;99.90;;;;;;5130500;27;20410;-67
2023/05/24 04:33:48;;;;;;;13.10;4.73;;;12.20;99.90;;;;;;5130447;27;20470;-66
2023/05/24 04:36:15;;;;;;;11.77;5.00;;;12.20;99.90;;;;;;5130151;27;20200;-66
2023/05/24 04:38:40;;;;;;;14.23;4.80;;;12.20;99.90;;;;;;5111715;27;20900;-67
2023/05/24 04:41:06;;;;;;;10.93;4.67;;;12.30;99.90;;;;;;5130212;27;20513;-66
2023/05/24 04:43:33;;;;;;;9.23;4.90;;;12.20;99.90;;;;;;5130197;27;20196;-66
2023/05/24 04:45:59;;;;;;;10.60;4.80;;;12.30;99.90;;;;;;5130194;27;20790;-67
2023/05/24 04:48:25;;;;;;;11.80;5.73;;;12.20;99.90;;;;;;5130189;28;20422;-66
2023/05/24 04:50:51;;;;;;;16.23;4.80;;;12.20;99.90;;;;;;5128577;28;20216;-67
2023/05/24 04:53:20;;;;;;;9.87;4.90;;;12.20;99.90;;;;;;5109111;28;20219;-68
2023/05/24 04:55:47;;;;;;;13.10;4.70;;;12.40;99.90;;;;;;5127691;28;20417;-67
2023/05/24 04:58:13;;;;;;;10.97;5.30;;;12.30;99.90;;;;;;5127574;27;20562;-67
2023/05/24 05:00:39;;;;;;;14.83;4.50;;;12.30;99.90;;;;;;5127866;27;20422;-67
2023/05/24 05:03:04;;;;;;;11.10;5.67;;;12.30;99.90;;;;;;5127802;28;20412;-67
2023/05/24 05:05:30;;;;;;;9.50;5.07;;;12.30;99.90;;;;;;5128329;27;20203;-67
2023/05/24 05:07:56;;;;;;;17.93;5.30;;;12.30;99.90;;;;;;5109758;28;20237;-67
2023/05/24 05:10:22;;;;;;;14.73;5.73;;;12.30;99.90;;;;;;5128325;28;20792;-66
2023/05/24 05:12:47;;;;;;;10.93;4.60;;;12.30;99.90;;;;;;5128226;28;20236;-67
2023/05/24 05:15:13;;;;;;;21.90;5.57;;;12.30;99.90;;;;;;5128082;27;20463;-67
2023/05/24 05:17:39;;;;;;;12.20;5.87;;;12.20;99.90;;;;;;5128234;27;20202;-68
2023/05/24 05:20:06;;;;;;;10.23;5.33;;;12.20;99.90;;;;;;5132300;27;20457;-67
2023/05/24 05:22:31;;;;;;;15.33;5.37;;;12.20;99.90;;;;;;5096362;27;20682;-66
2023/05/24 05:24:57;;;;;;;14.00;5.20;;;12.20;99.90;;;;;;5131941;27;20434;-67
2023/05/24 05:27:22;;;;;;;14.53;5.70;;;12.20;99.90;;;;;;5131531;27;20210;-67
2023/05/24 05:29:48;;;;;;;9.40;5.43;;;12.20;99.90;;;;;;5131590;27;20184;-66
2023/05/24 05:32:14;;;;;;;9.03;4.77;;;12.20;99.90;;;;;;5131501;27;20663;-67
2023/05/24 05:34:40;;;;;;;8.23;4.80;;;12.30;99.90;;;;;;5112716;27;20247;-67
2023/05/24 05:37:06;;;;;;;13.00;5.60;;;12.30;99.90;;;;;;5131348;27;20441;-66
2023/05/24 05:39:32;;;;;;;12.93;5.50;;;12.40;99.90;;;;;;5131267;27;20480;-67
2023/05/24 05:41:58;;;;;;;7.43;4.40;;;12.30;99.90;;;;;;5131725;27;20437;-67
2023/05/24 05:44:23;;;;;;;9.97;4.83;;;12.50;99.90;;;;;;5131850;27;20398;-67
2023/05/24 05:46:49;;;;;;;13.07;4.87;;;12.40;99.90;;;;;;5131509;27;20457;-67
2023/05/24 05:49:17;;;;;;;14.10;5.50;;;12.40;99.90;;;;;;5131234;27;20191;-67
2023/05/24 05:51:46;;;;;;;11.70;5.43;;;12.40;99.90;;;;;;5131054;27;20177;-67
2023/05/24 05:54:17;;;;;;;10.73;5.37;;;12.40;99.90;;;;;;5131704;27;20437;-67
2023/05/24 05:56:47;;;;;;;11.10;5.63;;;12.40;99.90;;;;;;5096289;27;20473;-67
2023/05/24 05:59:15;;;;;;;12.00;4.93;;;12.40;99.90;;;;;;5131025;27;20450;-67
2023/05/24 06:01:41;;;;;;;19.50;6.17;;;12.40;99.90;;;;;;5131171;27;20446;-67
2023/05/24 06:04:07;;;;;;;11.90;4.67;;;12.30;99.90;;;;;;5131278;27;20415;-67
2023/05/24 06:06:32;;;;;;;16.33;5.30;;;12.30;99.90;;;;;;5131100;27;20887;-67
2023/05/24 06:08:59;;;;;;;12.53;5.60;;;12.40;99.90;;;;;;5131160;27;20703;-67
2023/05/24 06:11:25;;;;;;;14.57;5.27;;;12.30;99.90;;;;;;5131704;27;20214;-67
2023/05/24 06:13:52;;;;;;;11.93;5.37;;;12.30;99.90;;;;;;5113181;27;20417;-67
2023/05/24 06:16:18;;;;;;;12.57;5.87;;;12.30;99.90;;;;;;5131845;27;20433;-67
2023/05/24 06:18:44;;;;;;;16.57;6.00;;;12.30;99.90;;;;;;5131960;27;20496;-67
2023/05/24 06:21:10;;;;;;;17.20;5.23;;;12.30;99.90;;;;;;5131329;27;20848;-67
2023/05/24 06:23:37;;;;;;;14.03;5.17;;;12.30;99.90;;;;;;5112178;27;20180;-67
2023/05/24 06:26:03;;;;;;;12.33;4.67;;;12.40;99.90;;;;;;5130438;27;20421;-67
2023/05/24 06:28:28;;;;;;;14.33;4.87;;;12.40;99.90;;;;;;5131186;27;20878;-67
2023/05/24 06:30:54;;;;;;;9.80;5.17;;;12.40;99.90;;;;;;5131174;27;20183;-67
2023/05/24 06:33:21;;;;;;;15.10;5.13;;;12.40;99.90;;;;;;5112605;27;20248;-67
2023/05/24 06:35:47;;;;;;;12.10;5.53;;;12.40;99.90;;;;;;5112732;27;20188;-66
2023/05/24 06:38:12;;;;;;;27.07;6.63;;;12.40;99.90;;;;;;5130758;27;21003;-67
2023/05/24 06:40:38;;;;;;;14.47;6.10;;;12.40;99.90;;;;;;5131094;27;20421;-67
2023/05/24 06:43:04;;;;;;;14.10;5.83;;;12.50;99.90;;;;;;5130983;27;20193;-66
2023/05/24 06:45:30;;;;;;;13.53;5.17;;;12.50;99.90;;;;;;5112684;27;20409;-67
2023/05/24 06:47:55;;;;;;;15.90;5.80;;;12.50;99.90;;;;;;5130831;27;20688;-67
2023/05/24 06:50:21;;;;;;;10.50;5.30;;;12.60;99.90;;;;;;5130670;27;20440;-67
2023/05/24 06:52:47;;;;;;;13.53;4.90;;;12.60;99.90;;;;;;5130450;27;20184;-67
2023/05/24 06:55:13;;;;;;;22.57;6.37;;;12.70;99.90;;;;;;5130490;27;20185;-65
2023/05/24 06:57:38;;;;;;;14.20;5.03;;;12.70;99.90;;;;;;5112028;27;20207;-66
2023/05/24 07:00:09;;;;;;;11.50;5.70;;;12.70;99.90;;;;;;5130451;27;20470;-66
2023/05/24 07:02:34;;;;;;;9.80;6.20;;;12.70;99.90;;;;;;5130658;27;20191;-68
2023/05/24 07:05:00;;;;;;;12.63;5.30;;;12.90;99.90;;;;;;5130466;27;20418;-65
2023/05/24 07:07:26;;;;;;;13.30;4.90;;;12.90;99.90;;;;;;5111595;27;20197;-66
2023/05/24 07:09:52;;;;;;;10.23;4.93;;;13.00;99.90;;;;;;5130305;27;20944;-67
2023/05/24 07:12:17;;;;;;;11.87;5.93;;;13.10;99.90;;;;;;5130158;27;20215;-67
2023/05/24 07:14:43;;;;;;;14.67;5.20;;;13.20;99.90;;;;;;5130263;27;20185;-67
2023/05/24 07:17:08;;;;;;;10.77;5.17;;;13.30;99.90;;;;;;5129889;27;20209;-67
2023/05/24 07:19:34;;;;;;;14.17;5.40;;;13.30;99.90;;;;;;5130014;27;20228;-68
2023/05/24 07:22:00;;;;;;;13.30;4.93;;;13.20;99.90;;;;;;5129656;27;20175;-67
2023/05/24 07:24:26;;;;;;;11.83;5.10;;;13.20;99.90;;;;;;5129286;27;20457;-67
2023/05/24 07:26:52;;;;;;;11.80;5.53;;;13.10;99.90;;;;;;5129210;27;20454;-67
2023/05/24 07:29:18;;;;;;;12.17;5.57;;;13.10;99.90;;;;;;5111130;27;20192;-67
2023/05/24 07:31:44;;;;;;;13.23;5.23;;;13.20;99.90;;;;;;5129597;27;20407;-68
2023/05/24 07:34:10;;;;;;;15.23;5.10;;;13.20;99.90;;;;;;5129359;27;20414;-67
2023/05/24 07:36:35;;;;;;;11.50;5.50;;;13.20;99.90;;;;;;5129376;27;20821;-67
2023/05/24 07:39:03;;;;;;;15.60;5.27;;;13.00;99.90;;;;;;5129670;27;20207;-67
2023/05/24 07:41:29;;;;;;;11.97;6.30;;;13.10;99.90;;;;;;5110050;27;20464;-67
2023/05/24 07:43:55;;;;;;;15.80;5.20;;;13.00;99.90;;;;;;5129760;27;20403;-67
2023/05/24 07:46:21;;;;;;;16.00;6.20;;;13.10;99.90;;;;;;5129582;27;20201;-67
2023/05/24 07:48:47;;;;;;;9.37;4.93;;;13.10;99.90;;;;;;5129716;27;20264;-67
2023/05/24 07:51:12;;;;;;;16.70;5.33;;;13.20;99.90;;;;;;5129414;27;20933;-67
2023/05/24 07:53:38;;;;;;;13.27;5.23;;;13.20;99.90;;;;;;5129593;27;20412;-67
2023/05/24 07:56:06;;;;;;;21.07;5.27;;;13.10;99.90;;;;;;5129601;27;20188;-67
2023/05/24 07:58:32;;;;;;;13.63;5.27;;;13.10;99.90;;;;;;5129911;27;20469;-67
2023/05/24 08:00:57;;;;;;;19.57;5.00;;;13.00;99.90;;;;;;5130418;27;20444;-65
2023/05/24 08:03:24;;;;;;;12.90;4.70;;;13.20;99.90;;;;;;5129171;27;20185;-66
2023/05/24 08:05:50;;;;;;;17.07;5.07;;;13.20;99.90;;;;;;5128727;27;20188;-66
2023/05/24 08:08:16;;;;;;;17.33;5.60;;;13.20;99.90;;;;;;5128980;27;20438;-66
2023/05/24 08:10:42;;;;;;;17.43;5.33;;;13.20;99.90;;;;;;5128417;27;20418;-66
2023/05/24 08:13:07;;;;;;;10.70;4.53;;;13.20;99.90;;;;;;5110388;27;20184;-66
2023/05/24 08:15:33;;;;;;;21.53;5.13;;;13.40;99.90;;;;;;5128249;27;20683;-66
2023/05/24 08:17:59;;;;;;;17.33;5.37;;;13.40;99.90;;;;;;5128238;27;20214;-66
2023/05/24 08:20:24;;;;;;;24.13;6.87;;;13.20;99.90;;;;;;5109778;27;20672;-66
2023/05/24 08:22:50;;;;;;;10.40;5.37;;;13.30;99.90;;;;;;5128070;27;20191;-66
2023/05/24 08:25:16;;;;;;;17.50;6.50;;;13.30;99.90;;;;;;5109732;27;20193;-66
2023/05/24 08:27:41;;;;;;;12.00;4.90;;;13.20;99.90;;;;;;5130080;27;20830;-66
2023/05/24 08:30:07;;;;;;;12.33;5.03;;;13.10;99.90;;;;;;5110134;27;20192;-67
2023/05/24 08:32:33;;;;;;;20.97;6.70;;;13.00;99.90;;;;;;5128902;27;20196;-67
2023/05/24 08:34:59;;;;;;;11.93;5.67;;;12.90;99.90;;;;;;5128748;27;20478;-67
2023/05/24 08:37:25;;;;;;;14.00;5.67;;;12.90;99.90;;;;;;5128753;27;20204;-67
2023/05/24 08:39:51;;;;;;;16.63;5.27;;;12.80;99.90;;;;;;5128670;27;20211;-66
2023/05/24 08:42:16;;;;;;;13.13;4.93;;;12.90;99.90;;;;;;5128616;27;21070;-66
2023/05/24 08:44:56;;;;;;;12.37;4.90;;;12.90;99.90;;;;;;5128231;27;20649;-67
2023/05/24 08:47:23;;;;;;;16.67;6.17;;;12.80;99.90;;;;;;5128118;27;20573;-66
2023/05/24 08:49:49;;;;;;;17.60;5.33;;;12.70;99.90;;;;;;5127800;28;20414;-67
2023/05/24 08:52:15;;;;;;;20.90;5.07;;;12.70;99.90;;;;;;5129112;27;21053;-66
2023/05/24 08:54:42;;;;;;;13.87;5.60;;;12.70;99.90;;;;;;5132355;27;20454;-66
2023/05/24 08:57:10;;;;;;;14.53;5.37;;;12.60;99.90;;;;;;5131980;27;20931;-67
2023/05/24 08:59:38;;;;;;;16.23;6.30;;;12.50;99.90;;;;;;5113732;27;20476;-66
2023/05/24 09:02:04;;;;;;;12.60;5.20;;;12.60;99.90;;;;;;5131951;27;20744;-66
2023/05/24 09:04:31;;;;;;;15.70;5.30;;;12.80;99.90;;;;;;5131886;27;20416;-67
2023/05/24 09:06:57;;;;;;;17.47;5.53;;;13.00;99.90;;;;;;5131702;27;20982;-66
2023/05/24 09:09:27;;;;;;;17.40;5.07;;;13.00;99.90;;;;;;5131464;27;20419;-66
2023/05/24 09:11:57;;;;;;;15.83;5.67;;;13.00;99.90;;;;;;5113126;27;20806;-66
2023/05/24 09:14:23;;;;;;;18.83;6.20;;;13.10;99.90;;;;;;5131614;27;20450;-67
2023/05/24 09:16:50;;;;;;;14.43;5.00;;;13.10;99.90;;;;;;5131852;27;20484;-67
2023/05/24 09:19:16;;;;;;;16.27;5.63;;;13.30;99.90;;;;;;5131755;27;20977;-66
2023/05/24 09:21:43;;;;;;;14.43;5.40;;;13.20;99.90;;;;;;5131429;27;20421;-67
2023/05/24 09:24:10;;;;;;;10.93;5.20;;;13.20;99.90;;;;;;5112893;27;20422;-67
2023/05/24 09:26:36;;;;;;;14.97;5.63;;;13.30;99.90;;;;;;5131371;27;20506;-67
2023/05/24 09:29:06;;;;;;;13.53;5.20;;;13.30;99.90;;;;;;5131489;27;20422;-67
2023/05/24 09:31:33;;;;;;;20.77;5.80;;;13.40;99.90;;;;;;5131924;27;20261;-67
2023/05/24 09:33:58;;;;;;;14.63;5.47;;;13.40;99.90;;;;;;5131232;27;20410;-67
2023/05/24 09:36:24;;;;;;;18.33;5.77;;;13.30;99.90;;;;;;5131491;27;20829;-67
2023/05/24 09:39:07;;;;;;;11.13;5.73;;;13.40;99.90;;;;;;5131173;27;20208;-67
2023/05/24 09:41:32;;;;;;;18.13;5.17;;;13.50;99.90;;;;;;5131236;27;20201;-66
2023/05/24 09:43:58;;;;;;;13.30;6.63;;;13.60;99.90;;;;;;5131123;27;20433;-67
2023/05/24 09:46:25;;;;;;;10.97;6.03;;;13.90;99.90;;;;;;5131092;27;20288;-67
2023/05/24 09:48:56;;;;;;;11.20;4.73;;;13.90;99.90;;;;;;5112330;27;20193;-67
2023/05/24 09:51:22;;;;;;;14.23;4.97;;;14.00;99.90;;;;;;5131060;27;20425;-66
2023/05/24 09:53:51;;;;;;;19.07;5.83;;;13.90;99.90;;;;;;5130906;27;20934;-67
2023/05/24 09:56:17;;;;;;;11.13;4.63;;;14.00;99.90;;;;;;5130829;27;20953;-67
2023/05/24 09:58:44;;;;;;;14.53;5.97;;;14.00;99.90;;;;;;5131444;27;20531;-67
2023/05/24 10:01:11;;;;;;;13.93;5.13;;;14.00;99.90;;;;;;5131294;27;20416;-66
2023/05/24 10:03:36;;;;;;;20.20;6.17;;;14.10;99.90;;;;;;5130455;27;20410;-66
2023/05/24 10:06:06;;;;;;;15.93;5.40;;;14.20;99.90;;;;;;5131442;27;20467;-67
2023/05/24 10:08:33;;;;;;;14.23;5.33;;;14.30;99.90;;;;;;5130853;27;20510;-67
2023/05/24 10:11:02;;;;;;;15.27;6.20;;;14.40;99.90;;;;;;5130909;27;20511;-67
2023/05/24 10:13:28;;;;;;;10.03;6.00;;;14.40;99.90;;;;;;5130666;27;20414;-66
2023/05/24 10:15:54;;;;;;;15.10;5.10;;;14.30;99.90;;;;;;5111738;27;20913;-67
2023/05/24 10:18:19;;;;;;;11.53;5.07;;;14.40;99.90;;;;;;5111732;27;20484;-67
2023/05/24 10:20:45;;;;;;;14.00;6.07;;;14.50;99.90;;;;;;5130359;27;20201;-67
2023/05/24 10:23:14;;;;;;;15.40;5.87;;;14.50;99.90;;;;;;5130391;27;20419;-67
2023/05/24 10:25:47;;;;;;;10.60;4.77;;;14.40;99.90;;;;;;5111733;27;20646;-67
2023/05/24 10:28:14;;;;;;;18.17;7.27;;;14.30;99.90;;;;;;5130217;27;20950;-66
2023/05/24 10:30:43;;;;;;;18.03;5.93;;;14.30;99.90;;;;;;5130143;27;21165;-67
2023/05/24 10:33:13;;;;;;;15.67;5.43;;;14.30;99.90;;;;;;5130045;27;20783;-66
2023/05/24 10:35:39;;;;;;;12.30;5.27;;;14.20;99.90;;;;;;5130377;27;20921;-66
2023/05/24 10:38:08;;;;;;;11.63;4.90;;;14.10;99.90;;;;;;5129925;27;20442;-66
2023/05/24 10:40:34;;;;;;;13.93;4.67;;;14.00;99.90;;;;;;5129978;27;20448;-66
2023/05/24 10:43:03;;;;;;;12.77;5.00;;;13.90;99.90;;;;;;5111046;27;20981;-66
2023/05/24 10:45:37;;;;;;;16.93;4.30;;;13.70;99.90;;;;;;5129735;27;20425;-66
2023/05/24 10:48:12;;;;;;;8.97;5.03;;;13.70;99.90;;;;;;5129801;27;20447;-66
2023/05/24 10:50:39;;;;;;;9.67;5.20;;;13.80;99.90;;;;;;5129900;27;20564;-66
2023/05/24 10:53:15;;;;;;;17.00;4.93;;;13.70;99.90;;;;;;5129877;27;20426;-67
2023/05/24 10:55:58;;;;;;;18.10;5.37;;;13.70;99.90;;;;;;5129738;27;20421;-66
2023/05/24 10:58:53;;;;;;;14.93;5.13;;;13.70;99.90;;;;;;5129627;27;20454;-66
2023/05/24 11:01:32;;;;;;;11.67;5.00;;;13.70;99.90;;;;;;5129715;27;20449;-66
2023/05/24 11:04:15;;;;;;;16.80;4.73;;;13.60;99.90;;;;;;5111268;27;20480;-65
2023/05/24 11:07:08;;;;;;;11.17;5.20;;;13.50;99.90;;;;;;5130192;27;20450;-66
2023/05/24 11:09:35;;;;;;;14.70;5.30;;;13.40;99.90;;;;;;5118949;27;20434;-67
2023/05/24 11:12:06;;;;;;;12.80;4.90;;;13.40;99.90;;;;;;5129644;27;20566;-67
2023/05/24 11:14:35;;;;;;;13.93;5.37;;;13.30;99.90;;;;;;5129669;27;20426;-66
2023/05/24 11:17:00;;;;;;;20.30;5.57;;;13.20;99.90;;;;;;5129294;27;20435;-65
2023/05/24 11:19:31;;;;;;;22.70;6.17;;;13.20;99.90;;;;;;5110698;27;20471;-67
2023/05/24 11:21:58;;;;;;;19.10;5.10;;;13.10;99.90;;;;;;5129282;27;20446;-67
2023/05/24 11:24:24;;;;;;;10.23;5.17;;;13.10;99.90;;;;;;5129256;27;20524;-67
2023/05/24 11:26:51;;;;;;;16.07;4.60;;;13.00;99.90;;;;;;5129094;27;21013;-67
2023/05/24 11:29:20;;;;;;;19.47;5.33;;;13.00;99.90;;;;;;5129147;27;20798;-66
2023/05/24 11:32:07;;;;;;;12.10;4.40;;;13.00;99.90;;;;;;5110488;27;20812;-66
2023/05/24 11:34:34;;;;;;;14.90;4.63;;;12.90;99.90;;;;;;5128738;27;20434;-66
2023/05/24 11:37:01;;;;;;;16.27;5.17;;;13.00;99.90;;;;;;5129445;27;20992;-66
2023/05/24 11:39:35;;;;;;;11.43;5.00;;;13.00;99.90;;;;;;5129284;27;20553;-66
2023/05/24 11:42:05;;;;;;;14.60;5.23;;;13.10;99.90;;;;;;5129574;27;20435;-65
2023/05/24 11:44:31;;;;;;;12.70;4.50;;;13.10;99.90;;;;;;5111152;27;20799;-65
2023/05/24 11:46:59;;;;;;;11.80;5.17;;;13.10;99.90;;;;;;5129477;27;20581;-66
2023/05/24 11:49:25;;;;;;;12.50;4.80;;;13.20;99.90;;;;;;5130012;27;20839;-66
2023/05/24 11:51:53;;;;;;;13.33;4.53;;;13.20;99.90;;;;;;5111338;27;21181;-66
2023/05/24 11:54:20;;;;;;;12.90;4.80;;;13.20;99.90;;;;;;5129772;27;20505;-66
2023/05/24 11:56:46;;;;;;;22.90;6.13;;;13.20;99.90;;;;;;5111314;27;20450;-66
2023/05/24 11:59:24;;;;;;;13.53;4.70;;;13.30;99.90;;;;;;5130195;27;20627;-66
2023/05/24 12:01:58;;;;;;;15.33;5.43;;;13.30;99.90;;;;;;5130453;27;20227;-65
2023/05/24 12:04:24;;;;;;;14.23;5.23;;;13.20;99.90;;;;;;5129898;27;20989;-65
2023/05/24 12:06:50;;;;;;;16.47;6.00;;;13.10;99.90;;;;;;5129544;27;20435;-66
2023/05/24 12:09:17;;;;;;;15.33;5.43;;;13.20;99.90;;;;;;5129658;27;20177;-67
2023/05/24 12:11:47;;;;;;;13.13;5.03;;;13.20;99.90;;;;;;5129582;27;20207;-66
2023/05/24 12:14:14;;;;;;;16.60;6.03;;;13.20;99.90;;;;;;5129716;27;20490;-66
2023/05/24 12:16:42;;;;;;;18.00;5.67;;;13.20;99.90;;;;;;5129589;27;20446;-66
2023/05/24 12:19:11;;;;;;;17.13;6.90;;;13.20;99.90;;;;;;5129449;27;20550;-67
2023/05/24 12:21:40;;;;;;;23.53;5.60;;;13.20;99.90;;;;;;5129730;27;20426;-66
2023/05/24 12:24:10;;;;;;;17.10;6.77;;;13.10;99.90;;;;;;5129897;27;20418;-66
2023/05/24 12:26:41;;;;;;;16.80;6.20;;;13.30;99.90;;;;;;5129498;27;20910;-66
2023/05/24 12:29:06;;;;;;;16.17;6.13;;;13.30;99.90;;;;;;5129883;27;20449;-66
2023/05/24 12:31:33;;;;;;;12.03;4.90;;;13.40;99.90;;;;;;5111224;27;20433;-66
2023/05/24 12:33:58;;;;;;;14.37;5.83;;;13.60;99.90;;;;;;5129610;27;20184;-66
2023/05/24 12:36:24;;;;;;;20.00;5.37;;;13.70;99.90;;;;;;5129557;27;20498;-65
2023/05/24 12:38:50;;;;;;;20.33;5.10;;;13.70;99.90;;;;;;5129350;27;20223;-67
2023/05/24 12:41:15;;;;;;;12.57;6.03;;;13.90;99.90;;;;;;5129392;27;20333;-67
2023/05/24 12:43:43;;;;;;;18.07;6.13;;;13.90;99.90;;;;;;5129569;27;20810;-67